Time;durP1;ratioP1;P1;durP2;ratioP2;P2;SDS_P1;SDS_P2;PMS_P1;PMS_P2;Temp;Humidity;BMP_temperature;BMP_pressure;BME280_temperature;BME280_humidity;BME280_pressure;Samples;Min_cycle;Max_cycle;Signal;HPM_P1;HPM_P2
2022/02/28 00:01:26;;;;;;;11.27;6.53;;;6.70;99.90;;;;;;5053246;28;20060;-85
2022/02/28 00:03:54;;;;;;;13.95;7.00;;;6.70;99.90;;;;;;5053016;28;20408;-85
2022/02/28 00:06:20;;;;;;;12.13;7.25;;;6.70;99.90;;;;;;5053415;28;20033;-85
2022/02/28 00:08:46;;;;;;;10.70;6.40;;;6.70;99.90;;;;;;5053033;28;20025;-85
2022/02/28 00:11:12;;;;;;;12.25;6.78;;;6.70;99.90;;;;;;5052945;28;20060;-85
2022/02/28 00:13:38;;;;;;;11.45;6.63;;;6.70;99.90;;;;;;5054364;28;20022;-85
2022/02/28 00:16:04;;;;;;;11.15;6.63;;;6.60;99.90;;;;;;5052960;28;20388;-85
2022/02/28 00:18:31;;;;;;;12.18;7.30;;;6.60;99.90;;;;;;5052918;28;20025;-85
2022/02/28 00:20:57;;;;;;;14.35;7.88;;;6.60;99.90;;;;;;5052863;28;20025;-85
2022/02/28 00:23:23;;;;;;;11.57;7.10;;;6.60;99.90;;;;;;5052856;28;20074;-85
2022/02/28 00:25:49;;;;;;;11.32;6.82;;;6.60;99.90;;;;;;5052748;28;20484;-85
2022/02/28 00:28:15;;;;;;;11.95;6.57;;;6.60;99.90;;;;;;5052624;28;20121;-85
2022/02/28 00:30:41;;;;;;;13.02;6.53;;;6.60;99.90;;;;;;5052586;28;20076;-85
2022/02/28 00:33:08;;;;;;;11.15;6.75;;;6.60;99.90;;;;;;5052617;28;20029;-85
2022/02/28 00:35:34;;;;;;;11.20;6.32;;;6.50;99.90;;;;;;5052544;28;20021;-85
2022/02/28 00:38:00;;;;;;;12.40;6.43;;;6.60;99.90;;;;;;5052563;28;20032;-85
2022/02/28 00:40:25;;;;;;;11.52;6.78;;;6.50;99.90;;;;;;5052499;28;20111;-85
2022/02/28 00:42:51;;;;;;;9.68;6.43;;;6.50;99.90;;;;;;5052617;28;20074;-85
2022/02/28 00:45:17;;;;;;;11.25;6.60;;;6.60;99.90;;;;;;5052440;28;20560;-85
2022/02/28 00:47:43;;;;;;;10.77;6.35;;;6.50;99.90;;;;;;5052364;28;20025;-85
2022/02/28 00:50:11;;;;;;;12.38;6.47;;;6.50;99.90;;;;;;5052228;28;20446;-85
2022/02/28 00:52:37;;;;;;;10.35;6.32;;;6.50;99.90;;;;;;5052226;28;20028;-86
2022/02/28 00:55:04;;;;;;;12.00;6.75;;;6.50;99.90;;;;;;5052265;28;20514;-85
2022/02/28 00:57:30;;;;;;;9.70;6.03;;;6.50;99.90;;;;;;5053390;28;20022;-86
2022/02/28 00:59:55;;;;;;;9.43;5.82;;;6.50;99.90;;;;;;5052148;28;20036;-86
2022/02/28 01:02:21;;;;;;;10.90;6.25;;;6.50;99.90;;;;;;5052111;28;20029;-86
2022/02/28 01:04:48;;;;;;;10.85;5.95;;;6.40;99.90;;;;;;5051937;28;20151;-86
2022/02/28 01:07:14;;;;;;;11.02;6.20;;;6.40;99.90;;;;;;5052112;28;20025;-85
2022/02/28 01:09:40;;;;;;;11.52;6.40;;;6.50;99.90;;;;;;5052014;28;20522;-85
2022/02/28 01:12:07;;;;;;;10.70;5.60;;;6.40;99.90;;;;;;5051907;28;20021;-86
2022/02/28 01:14:34;;;;;;;12.77;6.55;;;6.40;99.90;;;;;;5053179;28;20025;-85
2022/02/28 01:17:00;;;;;;;10.82;5.88;;;6.40;99.90;;;;;;5051868;28;20394;-85
2022/02/28 01:19:26;;;;;;;9.50;5.70;;;6.40;99.90;;;;;;5051911;28;20029;-85
2022/02/28 01:21:51;;;;;;;9.50;6.10;;;6.40;99.90;;;;;;5053386;28;20028;-85
2022/02/28 01:24:17;;;;;;;10.82;6.10;;;6.40;99.90;;;;;;5051895;28;20031;-85
2022/02/28 01:26:43;;;;;;;11.63;6.10;;;6.40;99.90;;;;;;5051810;28;20029;-85
2022/02/28 01:29:09;;;;;;;10.05;5.97;;;6.40;99.90;;;;;;5051809;28;20029;-86
2022/02/28 01:31:34;;;;;;;10.90;5.97;;;6.30;99.90;;;;;;5051761;28;20074;-86
2022/02/28 01:34:00;;;;;;;10.77;5.90;;;6.30;99.90;;;;;;5051749;28;20388;-85
2022/02/28 01:36:26;;;;;;;10.48;6.10;;;6.30;99.90;;;;;;5051907;28;20032;-85
2022/02/28 01:38:52;;;;;;;10.55;6.60;;;6.30;99.90;;;;;;5053000;28;20028;-86
2022/02/28 01:41:17;;;;;;;10.00;5.53;;;6.30;99.90;;;;;;5053818;28;20021;-85
2022/02/28 01:43:43;;;;;;;11.77;6.18;;;6.30;99.90;;;;;;5057413;28;20025;-86
2022/02/28 01:46:09;;;;;;;10.82;5.97;;;6.30;99.90;;;;;;5055827;28;20035;-85
2022/02/28 01:48:34;;;;;;;11.98;5.95;;;6.30;99.90;;;;;;5055772;28;20472;-85
2022/02/28 01:51:00;;;;;;;8.68;5.60;;;6.30;99.90;;;;;;5057461;28;20029;-85
2022/02/28 01:53:26;;;;;;;9.27;5.40;;;6.20;99.90;;;;;;5055959;28;20013;-85
2022/02/28 01:55:52;;;;;;;10.32;6.13;;;6.20;99.90;;;;;;5055632;28;20017;-85
2022/02/28 01:58:17;;;;;;;11.57;6.00;;;6.20;99.90;;;;;;5055564;28;20109;-85
2022/02/28 02:00:43;;;;;;;8.70;5.50;;;6.20;99.90;;;;;;5055556;28;20033;-86
2022/02/28 02:03:09;;;;;;;8.35;5.47;;;6.20;99.90;;;;;;5055807;28;20061;-86
2022/02/28 02:05:35;;;;;;;8.10;5.47;;;6.20;99.90;;;;;;5055510;28;20049;-85
2022/02/28 02:08:05;;;;;;;9.63;5.25;;;6.20;99.90;;;;;;5055399;28;20039;-85
2022/02/28 02:10:31;;;;;;;8.77;5.18;;;6.20;99.90;;;;;;5055851;28;20025;-85
2022/02/28 02:12:57;;;;;;;10.45;5.90;;;6.20;99.90;;;;;;5055296;28;20158;-86
2022/02/28 02:15:22;;;;;;;10.00;6.07;;;6.20;99.90;;;;;;5055259;28;20151;-86
2022/02/28 02:17:48;;;;;;;9.80;5.80;;;6.10;99.90;;;;;;5055637;28;20032;-86
2022/02/28 02:20:20;;;;;;;11.05;6.10;;;6.20;99.90;;;;;;5056844;28;20096;-86
2022/02/28 02:22:56;;;;;;;8.40;5.20;;;6.10;99.90;;;;;;5056555;28;20020;-86
2022/02/28 02:25:22;;;;;;;9.70;5.60;;;6.10;99.90;;;;;;5055338;28;20400;-86
2022/02/28 02:27:48;;;;;;;10.40;6.13;;;6.10;99.90;;;;;;5055233;28;20506;-86
2022/02/28 02:30:14;;;;;;;9.98;5.55;;;6.10;99.90;;;;;;5055089;28;20028;-86
2022/02/28 02:32:41;;;;;;;12.20;5.70;;;6.10;99.90;;;;;;5054941;28;20542;-86
2022/02/28 02:35:08;;;;;;;9.88;5.22;;;6.10;99.90;;;;;;5054925;28;20048;-86
2022/02/28 02:37:34;;;;;;;9.88;5.45;;;6.10;99.90;;;;;;5054819;28;20107;-86
2022/02/28 02:39:59;;;;;;;9.05;5.50;;;6.10;99.90;;;;;;5056035;28;20053;-86
2022/02/28 02:42:25;;;;;;;8.75;4.78;;;6.10;99.90;;;;;;5054687;28;20039;-86
2022/02/28 02:44:51;;;;;;;8.73;5.43;;;6.00;99.90;;;;;;5054667;28;20154;-86
2022/02/28 02:47:16;;;;;;;10.52;6.00;;;6.00;99.90;;;;;;5055972;28;20025;-86
2022/02/28 02:49:42;;;;;;;10.75;5.55;;;6.00;99.90;;;;;;5055903;28;20029;-86
2022/02/28 02:52:08;;;;;;;9.75;5.45;;;6.00;99.90;;;;;;5053081;28;20489;-87
2022/02/28 02:54:33;;;;;;;8.57;5.25;;;6.00;99.90;;;;;;5054449;28;20083;-87
2022/02/28 02:56:59;;;;;;;7.85;5.28;;;6.00;99.90;;;;;;5054706;28;20029;-86
2022/02/28 02:59:25;;;;;;;7.63;5.10;;;6.00;99.90;;;;;;5054383;28;20025;-86
2022/02/28 03:01:51;;;;;;;8.48;5.68;;;6.00;99.90;;;;;;5054355;28;20052;-86
2022/02/28 03:04:16;;;;;;;11.35;5.15;;;6.00;99.90;;;;;;5054176;28;20393;-86
2022/02/28 03:06:42;;;;;;;10.48;5.75;;;6.00;99.90;;;;;;5054253;28;20510;-86
2022/02/28 03:09:14;;;;;;;11.63;5.53;;;6.00;99.90;;;;;;5054252;28;20035;-86
2022/02/28 03:11:45;;;;;;;7.88;5.53;;;6.00;99.90;;;;;;5054137;28;20043;-86
2022/02/28 03:14:11;;;;;;;9.70;5.47;;;5.90;99.90;;;;;;5054192;28;20017;-86
2022/02/28 03:16:38;;;;;;;9.35;5.68;;;6.10;99.90;;;;;;5054079;28;20032;-86
2022/02/28 03:19:04;;;;;;;10.63;5.80;;;6.10;99.90;;;;;;5054055;28;20504;-86
2022/02/28 03:21:30;;;;;;;7.47;5.20;;;6.10;99.90;;;;;;5054001;28;20031;-86
2022/02/28 03:23:56;;;;;;;10.75;5.68;;;6.10;99.90;;;;;;5053980;28;20421;-86
2022/02/28 03:26:22;;;;;;;10.52;6.10;;;6.10;99.90;;;;;;5053901;28;20401;-86
2022/02/28 03:28:47;;;;;;;8.55;5.57;;;6.00;99.90;;;;;;5054055;28;20025;-86
2022/02/28 03:31:13;;;;;;;12.70;5.80;;;6.00;99.90;;;;;;5053772;28;20052;-86
2022/02/28 03:33:39;;;;;;;8.85;5.80;;;5.90;99.90;;;;;;5054121;28;20029;-86
2022/02/28 03:36:05;;;;;;;9.68;5.25;;;6.00;99.90;;;;;;5055521;28;20072;-86
2022/02/28 03:38:30;;;;;;;8.55;5.03;;;6.00;99.90;;;;;;5054241;28;20507;-86
2022/02/28 03:40:56;;;;;;;9.40;5.70;;;6.20;99.90;;;;;;5054145;28;20025;-86
2022/02/28 03:43:22;;;;;;;9.63;5.43;;;6.00;99.90;;;;;;5054150;28;20032;-87
2022/02/28 03:45:48;;;;;;;9.85;5.82;;;5.90;99.90;;;;;;5053796;28;20032;-86
2022/02/28 03:48:14;;;;;;;10.13;5.60;;;5.90;99.90;;;;;;5053512;28;20078;-86
2022/02/28 03:50:40;;;;;;;9.90;5.88;;;5.90;99.90;;;;;;5053417;28;20040;-87
2022/02/28 03:53:07;;;;;;;13.32;5.45;;;6.00;99.90;;;;;;5053420;28;20503;-86
2022/02/28 03:55:33;;;;;;;9.73;5.75;;;5.90;99.90;;;;;;5053514;28;20389;-86
2022/02/28 03:57:59;;;;;;;8.40;5.40;;;5.90;99.90;;;;;;5053914;28;20036;-86
2022/02/28 04:00:25;;;;;;;9.98;5.85;;;5.90;99.90;;;;;;5053248;28;20463;-86
2022/02/28 04:02:51;;;;;;;11.82;5.95;;;5.90;99.90;;;;;;5053245;28;20035;-86
2022/02/28 04:05:17;;;;;;;7.75;5.30;;;5.80;99.90;;;;;;5052783;28;20045;-87
2022/02/28 04:07:43;;;;;;;12.00;5.30;;;5.90;99.90;;;;;;5053211;28;20468;-87
2022/02/28 04:10:10;;;;;;;9.68;5.70;;;5.90;99.90;;;;;;5053126;28;20484;-87
2022/02/28 04:12:36;;;;;;;8.82;5.43;;;5.90;99.90;;;;;;5053024;28;20082;-86
2022/02/28 04:15:03;;;;;;;7.88;5.32;;;5.80;99.90;;;;;;5053002;28;20028;-87
2022/02/28 04:17:29;;;;;;;9.48;5.45;;;5.90;99.90;;;;;;5052942;28;20036;-86
2022/02/28 04:19:56;;;;;;;9.30;5.75;;;5.90;99.90;;;;;;5052958;28;20025;-86
2022/02/28 04:22:23;;;;;;;8.48;5.38;;;5.80;99.90;;;;;;5052881;28;20366;-86
2022/02/28 04:24:49;;;;;;;10.30;6.28;;;5.80;99.90;;;;;;5052854;28;20393;-86
2022/02/28 04:27:15;;;;;;;9.65;5.97;;;5.80;99.90;;;;;;5052812;28;20025;-86
2022/02/28 04:29:41;;;;;;;9.90;6.00;;;5.80;99.90;;;;;;5052824;28;20028;-87
2022/02/28 04:32:07;;;;;;;10.20;5.93;;;5.80;99.90;;;;;;5052600;28;20051;-86
2022/02/28 04:34:33;;;;;;;10.35;6.10;;;5.80;99.90;;;;;;5052665;28;20021;-87
2022/02/28 04:36:59;;;;;;;11.52;6.07;;;5.80;99.90;;;;;;5052627;28;20025;-86
2022/02/28 04:39:25;;;;;;;9.05;5.75;;;5.80;99.90;;;;;;5052576;28;20509;-86
2022/02/28 04:41:51;;;;;;;11.48;6.22;;;5.80;99.90;;;;;;5052491;28;20025;-87
2022/02/28 04:44:17;;;;;;;8.43;5.45;;;5.80;99.90;;;;;;5052740;28;20029;-86
2022/02/28 04:46:43;;;;;;;10.73;5.60;;;5.70;99.90;;;;;;5052704;28;20116;-86
2022/02/28 04:49:08;;;;;;;10.73;6.15;;;5.70;99.90;;;;;;5052439;28;20028;-86
2022/02/28 04:51:34;;;;;;;9.20;5.85;;;5.70;99.90;;;;;;5053011;28;20061;-86
2022/02/28 04:54:00;;;;;;;9.00;5.93;;;5.70;99.90;;;;;;5052802;28;20025;-86
2022/02/28 04:56:25;;;;;;;9.82;5.28;;;5.70;99.90;;;;;;5052594;28;20021;-86
2022/02/28 04:58:51;;;;;;;10.43;5.45;;;5.70;99.90;;;;;;5052496;28;20025;-86
2022/02/28 05:01:17;;;;;;;8.90;5.80;;;5.70;99.90;;;;;;5052206;28;20031;-86
2022/02/28 05:03:43;;;;;;;8.90;5.70;;;5.60;99.90;;;;;;5051997;28;20037;-86
2022/02/28 05:06:09;;;;;;;10.55;6.10;;;5.70;99.90;;;;;;5052077;28;20452;-87
2022/02/28 05:08:35;;;;;;;10.43;5.50;;;5.60;99.90;;;;;;5053333;28;20029;-86
2022/02/28 05:11:01;;;;;;;11.07;5.85;;;5.50;99.90;;;;;;5053533;28;20491;-86
2022/02/28 05:13:26;;;;;;;7.82;5.57;;;5.60;99.90;;;;;;5053276;28;20017;-86
2022/02/28 05:15:52;;;;;;;11.07;5.45;;;5.60;99.90;;;;;;5051164;28;20031;-86
2022/02/28 05:18:18;;;;;;;9.20;5.70;;;5.50;99.90;;;;;;5051945;28;20059;-86
2022/02/28 05:20:44;;;;;;;9.02;5.88;;;5.50;99.90;;;;;;5053431;28;20049;-86
2022/02/28 05:23:09;;;;;;;8.98;6.10;;;5.50;99.90;;;;;;5051821;28;20047;-86
2022/02/28 05:25:35;;;;;;;9.77;6.65;;;5.50;99.90;;;;;;5051810;28;20021;-86
2022/02/28 05:28:01;;;;;;;10.13;6.40;;;5.40;99.90;;;;;;5051844;28;20028;-86
2022/02/28 05:30:27;;;;;;;10.35;5.93;;;5.40;99.90;;;;;;5051798;28;20025;-86
2022/02/28 05:32:53;;;;;;;8.48;5.97;;;5.40;99.90;;;;;;5051793;28;20029;-86
2022/02/28 05:35:18;;;;;;;10.98;6.63;;;5.40;99.90;;;;;;5051766;28;20040;-86
2022/02/28 05:37:44;;;;;;;11.07;6.15;;;5.40;99.90;;;;;;5051752;28;20115;-86
2022/02/28 05:40:11;;;;;;;12.23;6.40;;;5.40;99.90;;;;;;5051694;28;20025;-87
2022/02/28 05:42:38;;;;;;;10.05;6.38;;;5.40;99.90;;;;;;5051705;28;20392;-87
2022/02/28 05:45:05;;;;;;;11.50;6.63;;;5.30;99.90;;;;;;5051686;28;20025;-86
2022/02/28 05:47:31;;;;;;;12.82;6.43;;;5.40;99.90;;;;;;5051701;28;20488;-86
2022/02/28 05:49:58;;;;;;;11.05;6.40;;;5.30;99.90;;;;;;5051859;28;20180;-86
2022/02/28 05:52:24;;;;;;;8.95;5.68;;;5.30;99.90;;;;;;5051449;28;20052;-86
2022/02/28 05:54:50;;;;;;;10.25;6.20;;;5.30;99.90;;;;;;5051628;28;20029;-86
2022/02/28 05:57:15;;;;;;;10.75;5.97;;;5.30;99.90;;;;;;5051557;28;20025;-86
2022/02/28 05:59:41;;;;;;;10.13;6.00;;;5.30;99.90;;;;;;5051545;28;20113;-86
2022/02/28 06:02:07;;;;;;;11.10;5.85;;;5.30;99.90;;;;;;5051503;28;20087;-86
2022/02/28 06:04:32;;;;;;;9.48;5.95;;;5.30;99.90;;;;;;5051320;28;20045;-86
2022/02/28 06:06:58;;;;;;;8.88;5.60;;;5.30;99.90;;;;;;5051723;28;20044;-85
2022/02/28 06:09:24;;;;;;;10.43;6.03;;;5.20;99.90;;;;;;5052948;28;20052;-86
2022/02/28 06:11:50;;;;;;;13.00;6.38;;;5.30;99.90;;;;;;5051339;28;20036;-85
2022/02/28 06:14:16;;;;;;;9.55;6.25;;;5.30;99.90;;;;;;5051417;28;20060;-86
2022/02/28 06:16:42;;;;;;;10.25;5.93;;;5.20;99.90;;;;;;5051391;28;20035;-85
2022/02/28 06:19:07;;;;;;;13.52;6.35;;;5.20;99.90;;;;;;5051342;28;20112;-86
2022/02/28 06:21:33;;;;;;;9.13;6.05;;;5.20;99.90;;;;;;5051305;28;20081;-86
2022/02/28 06:23:59;;;;;;;9.98;5.78;;;5.20;99.90;;;;;;5052404;28;20035;-85
2022/02/28 06:26:24;;;;;;;9.18;6.07;;;5.20;99.90;;;;;;5051793;28;20393;-86
2022/02/28 06:28:50;;;;;;;11.38;6.35;;;5.20;99.90;;;;;;5056307;28;20063;-86
2022/02/28 06:31:16;;;;;;;11.20;6.22;;;5.20;99.90;;;;;;5054906;28;20032;-86
2022/02/28 06:33:42;;;;;;;11.68;5.80;;;5.20;99.90;;;;;;5054973;28;20025;-85
2022/02/28 06:36:07;;;;;;;9.82;6.25;;;5.20;99.90;;;;;;5054931;28;20020;-86
2022/02/28 06:38:33;;;;;;;10.73;6.88;;;5.20;99.90;;;;;;5056018;28;20025;-86
2022/02/28 06:40:59;;;;;;;8.63;5.53;;;5.30;99.90;;;;;;5054648;28;20032;-85
2022/02/28 06:43:26;;;;;;;7.95;5.88;;;5.40;99.90;;;;;;5054659;28;20489;-85
2022/02/28 06:45:53;;;;;;;9.10;6.65;;;5.50;99.90;;;;;;5054694;28;20568;-86
2022/02/28 06:48:19;;;;;;;12.77;6.20;;;5.60;99.90;;;;;;5054837;28;20116;-85
2022/02/28 06:50:45;;;;;;;10.38;6.18;;;5.70;99.90;;;;;;5054583;28;20108;-85
2022/02/28 06:53:12;;;;;;;11.43;6.03;;;5.90;99.90;;;;;;5054601;28;20025;-86
2022/02/28 06:55:40;;;;;;;12.63;6.65;;;6.10;99.90;;;;;;5054561;28;20421;-86
2022/02/28 06:58:07;;;;;;;13.60;7.20;;;6.40;99.90;;;;;;5054486;28;20028;-85
2022/02/28 07:00:33;;;;;;;10.35;6.10;;;6.60;99.90;;;;;;5054487;28;20074;-85
2022/02/28 07:02:58;;;;;;;11.40;6.80;;;6.90;99.90;;;;;;5054443;28;20021;-85
2022/02/28 07:05:24;;;;;;;9.52;6.10;;;7.20;99.90;;;;;;5054217;28;20048;-86
2022/02/28 07:07:51;;;;;;;10.15;6.47;;;7.60;99.90;;;;;;5054353;28;20021;-88
2022/02/28 07:10:17;;;;;;;13.23;6.32;;;7.90;99.90;;;;;;5055243;28;20029;-85
2022/02/28 07:12:43;;;;;;;8.88;6.15;;;8.20;99.90;;;;;;5055442;28;20067;-85
2022/02/28 07:15:09;;;;;;;10.07;6.55;;;8.20;99.90;;;;;;5054211;28;20049;-85
2022/02/28 07:17:36;;;;;;;11.05;6.55;;;8.10;99.90;;;;;;5055409;28;20376;-85
2022/02/28 07:20:02;;;;;;;12.55;6.72;;;8.40;99.90;;;;;;5055421;28;20025;-84
2022/02/28 07:22:28;;;;;;;10.98;6.25;;;8.80;99.90;;;;;;5054034;28;20048;-85
2022/02/28 07:24:53;;;;;;;12.55;7.18;;;8.80;99.90;;;;;;5054104;28;20481;-87
2022/02/28 07:27:19;;;;;;;12.40;6.65;;;8.70;99.90;;;;;;5054532;28;20500;-84
2022/02/28 07:29:45;;;;;;;12.60;7.22;;;8.40;99.90;;;;;;5053907;28;20033;-85
2022/02/28 07:32:11;;;;;;;11.18;6.47;;;8.20;99.90;;;;;;5053736;28;20048;-84
2022/02/28 07:34:36;;;;;;;12.57;7.15;;;8.20;99.90;;;;;;5055401;28;20056;-84
2022/02/28 07:37:02;;;;;;;15.93;6.95;;;8.20;99.90;;;;;;5055384;28;20043;-84
2022/02/28 07:39:28;;;;;;;14.57;6.90;;;8.20;99.90;;;;;;5054243;28;20500;-83
2022/02/28 07:41:57;;;;;;;12.27;6.70;;;8.20;99.90;;;;;;5053717;28;20024;-84
2022/02/28 07:44:22;;;;;;;14.23;7.13;;;8.20;99.90;;;;;;5053615;28;20052;-84
2022/02/28 07:46:48;;;;;;;12.80;6.80;;;8.20;99.90;;;;;;5054946;28;20028;-84
2022/02/28 07:49:14;;;;;;;12.20;7.22;;;8.20;99.90;;;;;;5053778;28;20055;-84
2022/02/28 07:51:39;;;;;;;13.32;7.55;;;8.20;99.90;;;;;;5054984;28;20440;-84
2022/02/28 07:54:05;;;;;;;11.90;6.88;;;8.20;99.90;;;;;;5053453;28;20365;-84
2022/02/28 07:56:31;;;;;;;16.08;7.78;;;8.30;99.90;;;;;;5054645;28;20021;-83
2022/02/28 07:58:56;;;;;;;14.95;8.57;;;8.30;99.90;;;;;;5053550;28;20021;-84
2022/02/28 08:01:22;;;;;;;14.65;8.70;;;8.30;99.90;;;;;;5053556;28;20420;-84
2022/02/28 08:03:48;;;;;;;15.55;8.90;;;8.40;99.90;;;;;;5050590;28;20049;-84
2022/02/28 08:06:13;;;;;;;17.52;9.40;;;8.40;99.90;;;;;;5017188;28;20497;-84
2022/02/28 08:08:39;;;;;;;18.33;10.02;;;8.40;99.90;;;;;;5017100;28;20036;-84
2022/02/28 08:11:05;;;;;;;20.02;11.23;;;8.40;99.90;;;;;;5017073;28;20056;-83
2022/02/28 08:13:31;;;;;;;20.13;10.93;;;8.40;99.90;;;;;;5017632;28;20028;-83
2022/02/28 08:15:59;;;;;;;21.50;11.80;;;8.40;99.90;;;;;;5034577;28;20033;-83
2022/02/28 08:18:25;;;;;;;19.85;11.35;;;8.40;99.90;;;;;;5016695;28;20021;-83
2022/02/28 08:20:50;;;;;;;24.40;12.50;;;8.40;99.90;;;;;;5016627;28;20087;-83
2022/02/28 08:23:16;;;;;;;20.60;11.70;;;8.40;99.90;;;;;;5016895;28;20033;-83
2022/02/28 08:25:44;;;;;;;23.13;12.40;;;8.40;99.90;;;;;;5016527;28;20025;-83
2022/02/28 08:28:11;;;;;;;22.38;12.07;;;8.40;99.90;;;;;;5016342;28;20160;-83
2022/02/28 08:30:37;;;;;;;21.50;12.07;;;8.40;99.90;;;;;;5034125;28;20029;-83
2022/02/28 08:33:04;;;;;;;21.95;11.98;;;8.40;99.90;;;;;;5016381;28;20032;-83
2022/02/28 08:35:30;;;;;;;23.63;12.43;;;8.40;99.90;;;;;;5034037;28;20445;-84
2022/02/28 08:37:56;;;;;;;20.95;13.13;;;8.50;99.90;;;;;;5016307;28;20071;-83
2022/02/28 08:40:23;;;;;;;22.05;13.18;;;8.50;99.90;;;;;;5034211;28;20018;-82
2022/02/28 08:42:48;;;;;;;23.33;11.98;;;8.50;99.90;;;;;;5016286;28;20076;-83
2022/02/28 08:45:14;;;;;;;20.83;11.65;;;8.50;99.90;;;;;;5033810;28;20037;-83
2022/02/28 08:47:40;;;;;;;19.75;12.32;;;8.50;99.90;;;;;;5033716;28;20044;-82
2022/02/28 08:50:08;;;;;;;19.48;11.07;;;8.50;99.90;;;;;;5016009;28;20473;-82
2022/02/28 08:52:34;;;;;;;19.13;11.50;;;8.50;99.90;;;;;;5015798;28;20117;-82
2022/02/28 08:55:01;;;;;;;18.25;11.75;;;8.60;99.90;;;;;;5016027;28;20120;-81
2022/02/28 08:57:26;;;;;;;20.98;10.55;;;8.60;99.90;;;;;;5033652;28;20028;-82
2022/02/28 08:59:52;;;;;;;20.77;11.27;;;8.60;99.90;;;;;;5015901;28;20025;-82
2022/02/28 09:02:18;;;;;;;20.10;10.63;;;8.60;99.90;;;;;;5015860;28;20067;-82
2022/02/28 09:04:44;;;;;;;16.73;9.90;;;8.60;99.90;;;;;;5035838;28;20063;-82
2022/02/28 09:07:09;;;;;;;15.00;9.40;;;8.70;99.90;;;;;;5052100;28;20032;-82
2022/02/28 09:09:35;;;;;;;15.02;9.43;;;8.60;99.90;;;;;;5051980;28;20484;-82
2022/02/28 09:12:01;;;;;;;15.32;9.45;;;8.70;99.90;;;;;;5051929;28;20089;-82
2022/02/28 09:14:26;;;;;;;17.08;9.52;;;8.70;99.90;;;;;;5052087;28;20482;-82
2022/02/28 09:16:52;;;;;;;16.27;9.32;;;8.80;99.90;;;;;;5051954;28;20021;-82
2022/02/28 09:19:18;;;;;;;13.60;9.02;;;8.70;99.90;;;;;;5051990;28;20017;-82
2022/02/28 09:21:44;;;;;;;16.90;9.02;;;8.70;99.90;;;;;;5051914;28;20028;-82
2022/02/28 09:24:10;;;;;;;15.43;8.90;;;8.70;99.90;;;;;;5051947;28;20033;-82
2022/02/28 09:26:36;;;;;;;15.23;8.52;;;8.70;99.90;;;;;;5051924;28;20025;-82
2022/02/28 09:29:03;;;;;;;13.73;8.48;;;8.80;99.90;;;;;;5051975;28;20028;-82
2022/02/28 09:31:29;;;;;;;11.93;8.02;;;8.80;99.90;;;;;;5051804;28;20055;-83
2022/02/28 09:33:55;;;;;;;16.00;8.55;;;8.80;99.90;;;;;;5053050;28;20021;-83
2022/02/28 09:36:20;;;;;;;13.05;7.75;;;8.80;99.90;;;;;;5051781;28;20025;-82
2022/02/28 09:38:46;;;;;;;14.38;8.10;;;8.80;99.90;;;;;;5051777;28;20051;-82
2022/02/28 09:41:15;;;;;;;12.80;8.10;;;8.80;99.90;;;;;;5053020;28;20025;-82
2022/02/28 09:43:42;;;;;;;13.93;7.80;;;8.90;99.90;;;;;;5051678;28;20053;-82
2022/02/28 09:46:08;;;;;;;17.40;8.30;;;8.90;99.90;;;;;;5051747;28;20388;-82
2022/02/28 09:48:35;;;;;;;12.45;7.53;;;8.90;99.90;;;;;;5051756;28;20113;-82
2022/02/28 09:51:01;;;;;;;13.65;7.65;;;9.00;99.90;;;;;;5051544;28;20033;-82
2022/02/28 09:53:27;;;;;;;13.25;7.90;;;9.00;99.90;;;;;;5051601;28;20032;-83
2022/02/28 09:55:53;;;;;;;12.68;6.97;;;9.00;99.90;;;;;;5051641;28;20048;-82
2022/02/28 09:58:29;;;;;;;9.90;6.95;;;9.00;99.90;;;;;;5051697;28;20032;-82
2022/02/28 10:00:56;;;;;;;12.70;6.72;;;9.10;99.90;;;;;;5051745;28;20063;-82
2022/02/28 10:03:22;;;;;;;10.57;6.80;;;9.00;99.90;;;;;;5054551;28;20033;-82
2022/02/28 10:05:47;;;;;;;11.82;6.75;;;9.00;99.90;;;;;;5019105;28;20033;-82
2022/02/28 10:08:14;;;;;;;10.93;6.80;;;9.00;99.90;;;;;;5019067;28;20030;-82
2022/02/28 10:10:40;;;;;;;12.70;6.75;;;9.00;99.90;;;;;;5018920;28;20396;-82
2022/02/28 10:13:07;;;;;;;13.38;7.03;;;9.00;99.90;;;;;;5018958;28;20021;-81
2022/02/28 10:15:32;;;;;;;11.43;6.60;;;9.10;99.90;;;;;;5018977;28;20032;-82
2022/02/28 10:18:01;;;;;;;12.85;6.03;;;9.00;99.90;;;;;;5036672;28;20104;-82
2022/02/28 10:20:29;;;;;;;12.70;6.38;;;9.10;99.90;;;;;;5018828;28;20033;-83
2022/02/28 10:23:09;;;;;;;13.30;5.80;;;9.10;99.90;;;;;;5018728;28;20022;-82
2022/02/28 10:25:35;;;;;;;11.07;6.18;;;9.10;99.90;;;;;;5018783;28;20017;-82
2022/02/28 10:28:12;;;;;;;13.73;6.68;;;9.10;99.90;;;;;;5018614;28;20389;-82
2022/02/28 10:30:50;;;;;;;19.08;13.85;;;9.10;99.90;;;;;;5018652;28;20014;-82
2022/02/28 10:33:16;;;;;;;16.27;10.27;;;9.10;99.90;;;;;;5018665;28;20032;-82
2022/02/28 10:36:01;;;;;;;15.68;9.50;;;9.10;99.90;;;;;;5018462;28;20022;-82
2022/02/28 10:38:32;;;;;;;12.85;8.40;;;9.10;99.90;;;;;;5036543;28;20021;-82
2022/02/28 10:41:00;;;;;;;14.43;8.85;;;9.10;99.90;;;;;;5018513;28;20079;-82
2022/02/28 10:43:28;;;;;;;13.02;8.25;;;9.10;99.90;;;;;;5018421;28;20578;-81
2022/02/28 10:45:55;;;;;;;14.77;8.30;;;9.10;99.90;;;;;;5018882;28;20026;-82
2022/02/28 10:48:22;;;;;;;14.48;8.35;;;9.10;99.90;;;;;;5018279;28;20508;-82
2022/02/28 10:50:48;;;;;;;14.15;7.72;;;9.20;99.90;;;;;;5018107;28;20029;-82
2022/02/28 10:53:20;;;;;;;11.82;7.68;;;9.20;99.90;;;;;;5018101;28;20021;-82
2022/02/28 10:55:48;;;;;;;13.43;7.95;;;9.20;99.90;;;;;;5035921;28;20499;-81
2022/02/28 10:58:24;;;;;;;12.70;7.18;;;9.20;99.90;;;;;;5018055;28;20370;-82
2022/02/28 11:01:04;;;;;;;13.30;7.38;;;9.20;99.90;;;;;;5018127;28;20036;-82
2022/02/28 11:03:49;;;;;;;14.13;7.45;;;9.30;99.90;;;;;;5035626;28;20483;-82
2022/02/28 11:06:23;;;;;;;11.32;7.00;;;9.30;99.90;;;;;;5035646;28;20029;-82
2022/02/28 11:08:49;;;;;;;13.23;6.63;;;9.30;99.90;;;;;;5017841;28;20384;-83
2022/02/28 11:11:16;;;;;;;11.55;7.07;;;9.30;99.90;;;;;;5017695;28;20025;-81
2022/02/28 11:13:43;;;;;;;11.52;6.75;;;9.40;99.90;;;;;;5016640;28;20113;-82
2022/02/28 11:16:13;;;;;;;12.55;6.90;;;9.40;99.90;;;;;;5017717;28;20033;-82
2022/02/28 11:18:40;;;;;;;12.95;6.75;;;9.40;99.90;;;;;;5017673;28;20076;-82
2022/02/28 11:21:07;;;;;;;12.20;7.35;;;9.40;99.90;;;;;;5035405;28;20021;-82
2022/02/28 11:23:46;;;;;;;10.85;6.55;;;9.40;99.90;;;;;;5035380;28;20444;-82
2022/02/28 11:26:17;;;;;;;12.70;6.47;;;9.40;99.90;;;;;;5035379;28;20027;-81
2022/02/28 11:28:43;;;;;;;11.80;6.28;;;9.40;99.90;;;;;;5017578;28;20060;-82
2022/02/28 11:31:16;;;;;;;11.45;6.53;;;9.40;99.90;;;;;;5035164;28;20032;-82
2022/02/28 11:34:09;;;;;;;10.52;6.47;;;9.50;99.90;;;;;;5017511;28;20026;-82
2022/02/28 11:36:48;;;;;;;11.00;6.43;;;9.50;99.90;;;;;;5035209;28;20024;-82
2022/02/28 11:39:13;;;;;;;9.32;6.05;;;9.50;99.90;;;;;;5035090;28;20091;-82
2022/02/28 11:41:39;;;;;;;11.10;6.45;;;9.50;99.90;;;;;;5035057;28;20033;-82
2022/02/28 11:44:08;;;;;;;12.30;6.43;;;9.60;99.90;;;;;;5017139;28;20417;-82
2022/02/28 11:46:37;;;;;;;12.55;5.90;;;9.50;99.90;;;;;;5017172;28;20033;-82
2022/02/28 11:49:04;;;;;;;11.30;6.07;;;9.60;99.90;;;;;;5017091;28;20454;-82
2022/02/28 11:51:36;;;;;;;10.80;6.55;;;9.60;99.90;;;;;;5034838;28;20100;-82
2022/02/28 11:54:03;;;;;;;8.60;5.75;;;9.60;99.90;;;;;;5034731;28;20385;-82
2022/02/28 11:56:34;;;;;;;11.07;5.97;;;9.60;99.90;;;;;;5034819;28;20051;-81
2022/02/28 11:59:05;;;;;;;10.55;6.00;;;9.60;99.90;;;;;;5034776;28;20021;-82
2022/02/28 12:01:41;;;;;;;8.90;5.50;;;9.60;99.90;;;;;;5034657;28;20025;-82
2022/02/28 12:04:06;;;;;;;11.80;6.07;;;9.60;99.90;;;;;;5026771;28;20458;-82
2022/02/28 12:07:00;;;;;;;7.53;5.22;;;9.60;99.90;;;;;;5054777;28;20028;-82
2022/02/28 12:09:37;;;;;;;8.65;5.43;;;9.60;99.90;;;;;;5053180;28;20029;-81
2022/02/28 12:12:25;;;;;;;8.80;5.47;;;9.60;99.90;;;;;;5053097;28;20124;-82
2022/02/28 12:14:57;;;;;;;9.65;5.70;;;9.60;99.90;;;;;;5053013;28;20021;-82
2022/02/28 12:17:42;;;;;;;10.40;5.75;;;9.70;99.90;;;;;;5054337;28;20017;-82
2022/02/28 12:20:26;;;;;;;10.63;5.25;;;9.70;99.90;;;;;;5053069;28;20029;-81
2022/02/28 12:22:55;;;;;;;10.23;5.47;;;9.70;99.90;;;;;;5052936;28;20029;-82
2022/02/28 12:25:44;;;;;;;9.35;5.60;;;9.80;99.90;;;;;;5052577;28;20029;-81
2022/02/28 12:28:23;;;;;;;8.70;5.93;;;9.80;99.90;;;;;;5052825;28;20519;-81
2022/02/28 12:31:02;;;;;;;8.70;5.90;;;9.80;99.90;;;;;;5054052;28;20096;-81
2022/02/28 12:33:34;;;;;;;12.38;5.90;;;9.80;99.90;;;;;;5052786;28;20048;-81
2022/02/28 12:36:09;;;;;;;10.13;5.47;;;9.80;99.90;;;;;;5052746;28;20025;-81
2022/02/28 12:38:51;;;;;;;8.80;5.70;;;9.90;99.90;;;;;;5052705;28;20473;-81
2022/02/28 12:41:22;;;;;;;9.68;5.30;;;9.90;99.90;;;;;;5054004;28;20550;-81
2022/02/28 12:43:48;;;;;;;10.88;6.22;;;10.00;99.90;;;;;;5052683;28;20025;-81
2022/02/28 12:46:20;;;;;;;10.95;6.07;;;9.90;99.90;;;;;;5053743;28;20434;-81
2022/02/28 12:48:47;;;;;;;10.30;6.20;;;10.00;99.90;;;;;;5053778;28;20029;-81